ENBR/BGO METAR and TAF weather

Enter ICAO airport designator
Station Type Date Time Source
ENBR METAR 2021/10/20 07:20 UTC NOAA

ENBR 200720Z 21014KT 9999 -RA FEW002 BKN008 12/11 Q0984 TEMPO 4000 RADZ BR RMK WIND 1200FT 22023G35KT


Station Type Date Time Source
ENBR Decoded METAR 2021/10/20 07:20 UTC NOAA

Bergen / Flesland, Norway (ENBR) 60-17N 005-14E 50M
Oct 20, 2021 - 03:20 AM EDT / 2021.10.20 0720 UTC
Wind: from the SSW (210 degrees) at 16 MPH (14 KT):0
Visibility: greater than 7 mile(s):0
Sky conditions: mostly cloudy
Weather: light rain
Temperature: 53 F (12 C)
Dew Point: 51 F (11 C)
Relative Humidity: 93%
Pressure (altimeter): 29.06 in. Hg (0984 hPa)
ob: ENBR 200720Z 21014KT 9999 -RA FEW002 BKN008 12/11 Q0984 TEMPO 4000 RADZ BR RMK WIND 1200FT 22023G35KT
cycle: 7

Station Type Date Time Source
ENBR TAF 2021/10/20 06:57 UTC NOAA

TAF ENBR 200500Z 2006/2106 19015KT 8000 -RA SCT003 BKN008
TEMPO 2006/2010 2000 RADZ BR BKN002
BECMG 2010/2012 SCT008 BKN020
TEMPO 2012/2106 4000 SHRA BKN012CB
TEMPO 2014/2018 20018G28KT
BECMG 2018/2020 29012KT
BECMG 2104/2106 35012KT

Example: see airport list